Time;durP1;ratioP1;P1;durP2;ratioP2;P2;SDS_P1;SDS_P2;PMS_P1;PMS_P2;Temp;Humidity;BMP_temperature;BMP_pressure;BME280_temperature;BME280_humidity;BME280_pressure;Samples;Min_cycle;Max_cycle;Signal;HPM_P1;HPM_P2
2024/01/23 00:02:07;;;;;;;15.80;11.70;;;;;;;;;;5048200;28;20036;-56
2024/01/23 00:04:33;;;;;;;14.53;11.43;;;;;;;;;;5043888;28;20024;-57
2024/01/23 00:07:00;;;;;;;13.23;11.17;;;;;;;;;;5044878;28;20033;-56
2024/01/23 00:09:27;;;;;;;14.43;10.93;;;;;;;;;;5064234;28;20141;-58
2024/01/23 00:11:53;;;;;;;15.07;10.50;;;;;;;;;;5046100;28;20025;-55
2024/01/23 00:14:19;;;;;;;15.97;10.57;;;;;;;;;;5046085;28;20033;-58
2024/01/23 00:16:48;;;;;;;18.03;10.50;;;;;;;;;;5045025;28;20020;-57
2024/01/23 00:19:14;;;;;;;15.93;10.10;;;;;;;;;;5042797;28;20043;-55
2024/01/23 00:21:40;;;;;;;14.43;11.03;;;;;;;;;;5046333;28;20033;-58
2024/01/23 00:24:06;;;;;;;15.67;10.87;;;;;;;;;;5038160;28;20526;-56
2024/01/23 00:26:32;;;;;;;16.37;10.27;;;;;;;;;;5040430;28;20109;-56
2024/01/23 00:28:58;;;;;;;16.63;10.77;;;;;;;;;;5050492;28;20442;-56
2024/01/23 00:31:26;;;;;;;12.03;10.17;;;;;;;;;;5050418;28;20033;-58
2024/01/23 00:33:52;;;;;;;16.80;11.07;;;;;;;;;;5050246;28;20032;-58
2024/01/23 00:36:18;;;;;;;13.97;10.80;;;;;;;;;;5041045;28;20017;-58
2024/01/23 00:38:44;;;;;;;15.67;11.67;;;;;;;;;;5047935;28;20360;-57
2024/01/23 00:41:10;;;;;;;12.97;10.23;;;;;;;;;;5051392;28;20036;-55
2024/01/23 00:43:36;;;;;;;14.50;11.27;;;;;;;;;;5050958;28;20025;-59
2024/01/23 00:46:03;;;;;;;17.47;11.50;;;;;;;;;;5048131;28;20112;-58
2024/01/23 00:48:29;;;;;;;17.10;12.10;;;;;;;;;;5050868;28;20538;-56
2024/01/23 00:51:02;;;;;;;18.50;11.70;;;;;;;;;;5044357;28;20131;-58
2024/01/23 00:53:28;;;;;;;16.27;12.30;;;;;;;;;;5048612;28;20552;-57
2024/01/23 00:55:54;;;;;;;16.50;12.23;;;;;;;;;;5041707;28;20108;-59
2024/01/23 00:58:20;;;;;;;18.63;13.50;;;;;;;;;;5051521;28;20319;-56
2024/01/23 01:00:46;;;;;;;16.70;12.47;;;;;;;;;;5051360;28;20475;-58
2024/01/23 01:03:12;;;;;;;20.17;14.07;;;;;;;;;;5046151;28;20158;-59
2024/01/23 01:05:38;;;;;;;17.03;12.77;;;;;;;;;;5046950;28;20470;-58
2024/01/23 01:08:05;;;;;;;18.73;13.10;;;;;;;;;;5046528;28;20099;-58
2024/01/23 01:10:31;;;;;;;21.00;14.83;;;;;;;;;;5048450;28;20041;-59
2024/01/23 01:12:57;;;;;;;17.83;13.13;;;;;;;;;;5048854;28;20108;-58
2024/01/23 01:15:23;;;;;;;19.30;13.87;;;;;;;;;;5047142;28;20099;-57
2024/01/23 01:17:49;;;;;;;21.37;13.67;;;;;;;;;;5043091;28;20026;-57
2024/01/23 01:20:15;;;;;;;21.13;14.03;;;;;;;;;;5051483;28;20035;-59
2024/01/23 01:22:41;;;;;;;20.70;13.33;;;;;;;;;;5051161;28;20021;-57
2024/01/23 01:25:08;;;;;;;19.97;12.90;;;;;;;;;;5049992;28;20078;-58
2024/01/23 01:27:34;;;;;;;20.37;13.43;;;;;;;;;;5052688;28;20013;-58
2024/01/23 01:30:01;;;;;;;20.07;13.53;;;;;;;;;;5055211;28;20029;-55
2024/01/23 01:32:27;;;;;;;16.37;12.80;;;;;;;;;;5054481;28;20024;-58
2024/01/23 01:34:53;;;;;;;18.43;13.37;;;;;;;;;;5047734;28;20581;-58
2024/01/23 01:37:19;;;;;;;19.30;13.27;;;;;;;;;;5054632;28;20063;-57
2024/01/23 01:39:45;;;;;;;18.17;13.60;;;;;;;;;;5052623;28;20029;-58
2024/01/23 01:42:18;;;;;;;16.83;13.10;;;;;;;;;;5040011;28;20036;-58
2024/01/23 01:44:44;;;;;;;18.03;12.40;;;;;;;;;;5052276;28;20052;-56
2024/01/23 01:47:10;;;;;;;16.47;13.03;;;;;;;;;;5047249;28;20016;-58
2024/01/23 01:49:36;;;;;;;16.30;12.80;;;;;;;;;;5054249;28;20558;-59
2024/01/23 01:52:03;;;;;;;17.20;12.93;;;;;;;;;;5048653;28;20049;-59
2024/01/23 01:54:30;;;;;;;21.90;13.33;;;;;;;;;;5054028;28;20040;-58
2024/01/23 01:56:59;;;;;;;14.53;11.80;;;;;;;;;;5053854;28;20025;-58
2024/01/23 01:59:25;;;;;;;22.03;12.83;;;;;;;;;;5054122;28;20538;-59
2024/01/23 02:01:51;;;;;;;19.77;13.27;;;;;;;;;;5035091;28;20479;-58
2024/01/23 02:04:17;;;;;;;15.93;11.23;;;;;;;;;;5051924;28;20186;-59
2024/01/23 02:06:43;;;;;;;15.57;11.93;;;;;;;;;;5042345;28;20049;-57
2024/01/23 02:09:10;;;;;;;17.30;11.90;;;;;;;;;;5049933;28;20039;-58
2024/01/23 02:11:36;;;;;;;18.20;13.23;;;;;;;;;;5038761;28;20029;-56
2024/01/23 02:14:02;;;;;;;19.10;11.70;;;;;;;;;;5047612;28;20043;-58
2024/01/23 02:16:28;;;;;;;16.70;11.70;;;;;;;;;;5051542;28;20075;-58
2024/01/23 02:18:54;;;;;;;18.37;11.83;;;;;;;;;;5052033;28;20036;-58
2024/01/23 02:21:20;;;;;;;20.03;11.67;;;;;;;;;;5052991;28;20025;-57
2024/01/23 02:23:46;;;;;;;14.13;11.47;;;;;;;;;;5052862;28;20436;-58
2024/01/23 02:26:15;;;;;;;16.23;11.53;;;;;;;;;;5050598;28;20025;-58
2024/01/23 02:28:41;;;;;;;17.23;11.73;;;;;;;;;;5052630;28;20040;-58
2024/01/23 02:31:10;;;;;;;15.60;10.53;;;;;;;;;;5050391;28;20068;-57
2024/01/23 02:33:36;;;;;;;14.07;10.77;;;;;;;;;;5043894;28;20091;-59
2024/01/23 02:36:02;;;;;;;13.40;10.10;;;;;;;;;;5049557;28;20372;-58
2024/01/23 02:38:28;;;;;;;17.10;11.37;;;;;;;;;;5049559;28;20029;-58
2024/01/23 02:40:56;;;;;;;15.63;10.83;;;;;;;;;;5041529;28;20035;-58
2024/01/23 02:43:22;;;;;;;15.37;10.90;;;;;;;;;;5052815;28;20032;-58
2024/01/23 02:45:48;;;;;;;14.20;10.17;;;;;;;;;;5050604;28;20021;-59
2024/01/23 02:48:14;;;;;;;14.27;9.73;;;;;;;;;;5052567;28;20455;-58
2024/01/23 02:50:41;;;;;;;13.33;10.00;;;;;;;;;;5043826;28;20045;-59
2024/01/23 02:53:07;;;;;;;15.83;10.30;;;;;;;;;;5048503;28;20136;-58
2024/01/23 02:55:33;;;;;;;12.90;9.77;;;;;;;;;;5046439;28;20024;-58
2024/01/23 02:57:59;;;;;;;16.77;9.27;;;;;;;;;;5039858;28;20026;-59
2024/01/23 03:00:25;;;;;;;13.40;9.47;;;;;;;;;;5047297;28;20061;-58
2024/01/23 03:02:51;;;;;;;13.87;9.20;;;;;;;;;;5043814;28;20097;-59
2024/01/23 03:05:17;;;;;;;13.07;9.37;;;;;;;;;;5038288;28;20406;-58
2024/01/23 03:07:55;;;;;;;15.27;8.90;;;;;;;;;;5053268;28;20029;-58
2024/01/23 03:10:21;;;;;;;11.93;8.50;;;;;;;;;;5051235;28;20135;-58
2024/01/23 03:12:47;;;;;;;9.93;8.47;;;;;;;;;;5051652;28;20453;-59
2024/01/23 03:15:13;;;;;;;10.30;8.30;;;;;;;;;;5048355;28;20029;-59
2024/01/23 03:17:39;;;;;;;13.10;9.37;;;;;;;;;;5051386;28;20466;-59
2024/01/23 03:20:05;;;;;;;11.50;8.30;;;;;;;;;;5053108;28;20036;-56
2024/01/23 03:22:40;;;;;;;13.57;9.47;;;;;;;;;;5052705;28;20017;-59
2024/01/23 03:25:06;;;;;;;;;;;;;;;;;;5049528;28;20092;-59
2024/01/23 03:27:32;;;;;;;11.57;8.23;;;;;;;;;;5050837;28;19940;-59
2024/01/23 03:29:58;;;;;;;13.57;9.00;;;;;;;;;;5051932;28;20424;-58
2024/01/23 03:32:26;;;;;;;12.67;8.63;;;;;;;;;;5048674;28;20029;-57
2024/01/23 03:34:51;;;;;;;13.63;9.17;;;;;;;;;;5046259;28;20352;-58
2024/01/23 03:37:18;;;;;;;12.50;8.37;;;;;;;;;;5051651;28;20124;-57
2024/01/23 03:39:44;;;;;;;13.87;8.17;;;;;;;;;;5050102;28;20063;-58
2024/01/23 03:42:10;;;;;;;14.67;9.00;;;;;;;;;;5044647;28;20033;-59
2024/01/23 03:44:36;;;;;;;12.43;8.83;;;;;;;;;;5040398;28;20018;-59
2024/01/23 03:47:02;;;;;;;10.47;8.40;;;;;;;;;;5052346;28;20061;-59
2024/01/23 03:49:28;;;;;;;11.43;8.00;;;;;;;;;;5045709;28;20029;-58
2024/01/23 03:51:54;;;;;;;15.47;8.40;;;;;;;;;;5051917;28;20043;-58
2024/01/23 03:54:20;;;;;;;12.70;8.60;;;;;;;;;;5049876;28;20033;-58
2024/01/23 03:56:46;;;;;;;11.23;7.93;;;;;;;;;;5047333;28;20542;-59
2024/01/23 03:59:13;;;;;;;12.87;8.47;;;;;;;;;;5043537;28;20025;-59
2024/01/23 04:01:39;;;;;;;12.07;8.63;;;;;;;;;;5043145;28;20033;-59
2024/01/23 04:04:05;;;;;;;11.80;8.20;;;;;;;;;;5048721;28;20025;-58
2024/01/23 04:06:31;;;;;;;14.20;9.00;;;;;;;;;;5051608;28;20089;-59
2024/01/23 04:08:57;;;;;;;15.23;9.30;;;;;;;;;;5050536;28;20127;-59
2024/01/23 04:11:23;;;;;;;12.50;9.27;;;;;;;;;;5051829;28;20021;-58
2024/01/23 04:13:49;;;;;;;12.03;8.67;;;;;;;;;;5049335;28;20561;-59
2024/01/23 04:16:15;;;;;;;12.50;9.03;;;;;;;;;;5047616;28;20025;-57
2024/01/23 04:18:41;;;;;;;12.20;9.40;;;;;;;;;;5051731;28;20082;-59
2024/01/23 04:21:07;;;;;;;13.23;9.63;;;;;;;;;;5040902;28;20025;-59
2024/01/23 04:23:33;;;;;;;10.73;8.67;;;;;;;;;;5051136;28;20136;-59
2024/01/23 04:25:59;;;;;;;14.20;9.97;;;;;;;;;;5050394;28;20029;-59
2024/01/23 04:28:26;;;;;;;14.67;9.90;;;;;;;;;;5051860;28;20076;-59
2024/01/23 04:30:52;;;;;;;16.10;10.00;;;;;;;;;;5049273;28;20410;-59
2024/01/23 04:33:19;;;;;;;14.37;10.40;;;;;;;;;;5044714;28;20521;-59
2024/01/23 04:35:45;;;;;;;13.57;10.03;;;;;;;;;;5044648;28;20128;-59
2024/01/23 04:38:11;;;;;;;12.50;10.17;;;;;;;;;;5045322;28;20455;-59
2024/01/23 04:40:37;;;;;;;13.33;10.27;;;;;;;;;;5045504;28;20116;-59
2024/01/23 04:43:03;;;;;;;15.10;10.97;;;;;;;;;;5048188;28;20430;-58
2024/01/23 04:45:29;;;;;;;14.47;10.10;;;;;;;;;;5048550;28;20053;-59
2024/01/23 04:47:56;;;;;;;14.90;10.30;;;;;;;;;;5049926;28;20127;-59
2024/01/23 04:50:22;;;;;;;19.07;10.43;;;;;;;;;;5043411;28;20033;-59
2024/01/23 04:52:48;;;;;;;16.07;10.87;;;;;;;;;;5048728;28;20033;-59
2024/01/23 04:55:14;;;;;;;16.00;10.70;;;;;;;;;;5052701;28;20152;-59
2024/01/23 04:57:41;;;;;;;16.33;11.27;;;;;;;;;;5055544;28;20471;-60
2024/01/23 05:00:09;;;;;;;17.93;11.20;;;;;;;;;;5053184;28;20029;-59
2024/01/23 05:02:36;;;;;;;15.17;10.77;;;;;;;;;;5043206;28;20044;-60
2024/01/23 05:05:03;;;;;;;14.97;10.93;;;;;;;;;;5046406;28;20025;-60
2024/01/23 05:07:29;;;;;;;16.67;11.80;;;;;;;;;;5051795;28;20454;-59
2024/01/23 05:09:55;;;;;;;16.37;11.03;;;;;;;;;;5052877;28;20128;-59
2024/01/23 05:12:21;;;;;;;14.77;11.17;;;;;;;;;;5051021;28;20095;-59
2024/01/23 05:14:47;;;;;;;15.37;11.10;;;;;;;;;;5044740;28;20025;-59
2024/01/23 05:17:13;;;;;;;18.00;11.80;;;;;;;;;;5047969;28;20021;-59
2024/01/23 05:19:39;;;;;;;14.10;12.10;;;;;;;;;;5054123;28;20028;-59
2024/01/23 05:22:05;;;;;;;18.87;12.40;;;;;;;;;;5042280;28;20017;-59
2024/01/23 05:24:31;;;;;;;16.80;12.63;;;;;;;;;;5035742;28;20017;-59
2024/01/23 05:26:57;;;;;;;17.43;12.33;;;;;;;;;;5053712;28;20021;-59
2024/01/23 05:29:22;;;;;;;18.50;13.03;;;;;;;;;;5053029;28;20478;-58
2024/01/23 05:31:48;;;;;;;17.13;13.47;;;;;;;;;;5043429;28;20023;-59
2024/01/23 05:34:14;;;;;;;16.17;12.63;;;;;;;;;;5044527;28;20030;-58
2024/01/23 05:36:40;;;;;;;18.33;13.03;;;;;;;;;;5041321;28;20147;-59
2024/01/23 05:39:06;;;;;;;17.93;13.43;;;;;;;;;;5049500;28;20029;-60
2024/01/23 05:41:32;;;;;;;14.43;11.83;;;;;;;;;;5050040;28;20014;-60
2024/01/23 05:43:58;;;;;;;15.47;11.63;;;;;;;;;;5047142;28;20056;-60
2024/01/23 05:46:24;;;;;;;18.33;12.80;;;;;;;;;;5050191;28;20021;-60
2024/01/23 05:48:50;;;;;;;16.13;12.50;;;;;;;;;;5053156;28;20503;-60
2024/01/23 05:51:17;;;;;;;18.77;13.50;;;;;;;;;;5049270;28;20052;-60
2024/01/23 05:53:43;;;;;;;20.30;14.07;;;;;;;;;;5047858;28;20135;-59
2024/01/23 05:56:09;;;;;;;19.43;12.97;;;;;;;;;;5051427;28;20029;-60
2024/01/23 05:58:36;;;;;;;18.63;13.87;;;;;;;;;;5052083;28;20055;-60
2024/01/23 06:01:02;;;;;;;18.83;13.10;;;;;;;;;;5056252;28;20060;-60
2024/01/23 06:03:28;;;;;;;20.60;13.90;;;;;;;;;;5047445;28;20041;-60
2024/01/23 06:05:53;;;;;;;17.33;13.53;;;;;;;;;;5046105;28;20059;-59
2024/01/23 06:08:19;;;;;;;18.90;13.70;;;;;;;;;;5044589;28;20075;-59
2024/01/23 06:10:49;;;;;;;17.23;12.60;;;;;;;;;;5048901;28;20029;-59
2024/01/23 06:13:14;;;;;;;15.57;12.07;;;;;;;;;;5043553;28;20331;-59
2024/01/23 06:15:41;;;;;;;14.83;11.47;;;;;;;;;;5043714;28;20033;-60
2024/01/23 06:18:08;;;;;;;18.17;11.30;;;;;;;;;;5051416;28;20119;-59
2024/01/23 06:20:34;;;;;;;16.23;11.80;;;;;;;;;;5049955;28;20021;-59
2024/01/23 06:23:00;;;;;;;18.17;10.83;;;;;;;;;;5053347;28;20385;-58
2024/01/23 06:25:26;;;;;;;17.30;11.83;;;;;;;;;;5045159;28;20021;-59
2024/01/23 06:27:52;;;;;;;20.23;13.63;;;;;;;;;;5034361;28;20025;-55
2024/01/23 06:30:18;;;;;;;19.23;13.03;;;;;;;;;;5038666;28;20032;-59
2024/01/23 06:32:44;;;;;;;16.60;13.57;;;;;;;;;;5045226;28;20024;-59
2024/01/23 06:35:10;;;;;;;23.23;15.17;;;;;;;;;;5052454;28;20020;-58
2024/01/23 06:37:36;;;;;;;21.17;15.80;;;;;;;;;;5051091;28;20023;-60
2024/01/23 06:40:02;;;;;;;24.80;15.23;;;;;;;;;;5041900;28;20569;-59
2024/01/23 06:42:28;;;;;;;26.63;17.00;;;;;;;;;;5048722;28;20060;-61
2024/01/23 06:44:54;;;;;;;23.70;15.13;;;;;;;;;;5040417;28;20536;-60
2024/01/23 06:47:20;;;;;;;22.53;15.73;;;;;;;;;;5061744;28;20041;-60
2024/01/23 06:49:46;;;;;;;24.87;15.33;;;;;;;;;;5049151;28;20491;-60
2024/01/23 06:52:12;;;;;;;20.73;14.70;;;;;;;;;;5035626;28;20040;-60
2024/01/23 06:54:38;;;;;;;23.40;15.37;;;;;;;;;;5042017;28;20032;-60
2024/01/23 06:57:07;;;;;;;24.57;14.40;;;;;;;;;;5046337;28;20021;-59
2024/01/23 06:59:33;;;;;;;22.87;14.97;;;;;;;;;;5038611;28;20036;-59
2024/01/23 07:05:03;;;;;;;18.83;14.03;;;;;;;;;;5038945;28;20432;-59
2024/01/23 07:07:29;;;;;;;19.77;14.77;;;;;;;;;;5046870;28;20037;-59
2024/01/23 07:09:55;;;;;;;21.63;14.57;;;;;;;;;;5051990;28;20129;-58
2024/01/23 07:12:21;;;;;;;22.97;15.53;;;;;;;;;;5048599;28;20032;-60
2024/01/23 07:14:47;;;;;;;26.57;15.70;;;;;;;;;;5051050;28;20021;-60
2024/01/23 07:17:14;;;;;;;25.90;16.20;;;;;;;;;;5049674;28;20371;-59
2024/01/23 07:19:41;;;;;;;25.57;16.40;;;;;;;;;;5040729;28;20546;-60
2024/01/23 07:22:07;;;;;;;27.97;16.53;;;;;;;;;;5051067;28;20332;-59
2024/01/23 07:24:33;;;;;;;22.07;16.43;;;;;;;;;;5048982;28;20534;-60
2024/01/23 07:26:59;;;;;;;22.50;16.30;;;;;;;;;;5050524;28;20049;-55
2024/01/23 07:29:25;;;;;;;21.80;15.70;;;;;;;;;;5050520;28;20051;-59
2024/01/23 07:31:51;;;;;;;23.73;15.80;;;;;;;;;;5054953;28;20025;-59
2024/01/23 07:34:17;;;;;;;22.27;15.93;;;;;;;;;;5051928;28;20130;-59
2024/01/23 07:36:44;;;;;;;22.67;14.63;;;;;;;;;;5051927;28;20025;-58
2024/01/23 07:39:11;;;;;;;22.97;15.70;;;;;;;;;;5053187;28;20379;-59
2024/01/23 07:41:37;;;;;;;24.13;14.73;;;;;;;;;;5053182;28;20037;-58
2024/01/23 07:44:03;;;;;;;20.53;14.30;;;;;;;;;;5053100;28;20091;-57
2024/01/23 07:46:29;;;;;;;24.67;14.33;;;;;;;;;;5051064;28;20025;-59
2024/01/23 07:48:55;;;;;;;25.77;15.27;;;;;;;;;;5045979;28;20136;-59
2024/01/23 07:51:21;;;;;;;23.93;14.53;;;;;;;;;;5049901;28;20073;-62
2024/01/23 07:53:48;;;;;;;22.87;13.57;;;;;;;;;;5039207;28;20036;-61
2024/01/23 07:56:14;;;;;;;17.93;13.77;;;;;;;;;;5043474;28;20022;-61
2024/01/23 07:58:48;;;;;;;22.50;12.93;;;;;;;;;;5050958;28;20086;-61
2024/01/23 08:01:13;;;;;;;22.27;14.33;;;;;;;;;;5052466;28;20021;-62
2024/01/23 08:03:40;;;;;;;22.83;14.83;;;;;;;;;;5051126;28;20032;-61
2024/01/23 08:06:06;;;;;;;21.47;14.20;;;;;;;;;;5038158;28;20047;-61
2024/01/23 08:08:32;;;;;;;22.00;13.90;;;;;;;;;;5044598;28;20486;-62
2024/01/23 08:10:58;;;;;;;21.63;13.73;;;;;;;;;;5051016;28;20036;-61
2024/01/23 08:13:24;;;;;;;26.40;14.77;;;;;;;;;;5048619;28;20376;-61
2024/01/23 08:15:50;;;;;;;20.93;15.37;;;;;;;;;;5052387;28;20028;-62
2024/01/23 08:18:17;;;;;;;29.80;15.70;;;;;;;;;;5052229;28;20104;-62
2024/01/23 08:20:43;;;;;;;27.60;15.93;;;;;;;;;;5051923;28;20029;-62
2024/01/23 08:23:09;;;;;;;25.70;15.83;;;;;;;;;;5051920;28;20116;-62
2024/01/23 08:25:35;;;;;;;24.37;14.67;;;;;;;;;;5051908;28;20037;-62
2024/01/23 08:28:01;;;;;;;22.37;15.23;;;;;;;;;;5051234;28;20467;-61
2024/01/23 08:30:27;;;;;;;23.13;14.90;;;;;;;;;;5050588;28;20039;-62
2024/01/23 08:32:53;;;;;;;23.13;14.37;;;;;;;;;;5039344;28;20080;-62
2024/01/23 08:35:20;;;;;;;21.30;14.93;;;;;;;;;;5055737;28;20029;-62
2024/01/23 08:37:46;;;;;;;27.97;15.60;;;;;;;;;;5051981;28;20021;-61
2024/01/23 08:40:15;;;;;;;25.83;16.47;;;;;;;;;;5050451;28;20025;-58
2024/01/23 08:42:41;;;;;;;24.37;15.87;;;;;;;;;;5046661;28;20029;-70
2024/01/23 08:45:08;;;;;;;23.83;17.03;;;;;;;;;;5043331;28;20037;-71
2024/01/23 08:47:34;;;;;;;26.87;16.33;;;;;;;;;;5041152;28;20082;-70
2024/01/23 08:50:00;;;;;;;30.23;15.83;;;;;;;;;;5042697;28;20146;-70
2024/01/23 08:52:26;;;;;;;25.67;16.13;;;;;;;;;;5040819;28;20056;-68
2024/01/23 08:54:52;;;;;;;22.77;15.37;;;;;;;;;;5044448;28;20037;-68
2024/01/23 08:57:27;;;;;;;35.00;19.57;;;;;;;;;;5044616;28;20079;-63
2024/01/23 08:59:53;;;;;;;31.50;20.20;;;;;;;;;;5037903;28;20533;-69
2024/01/23 09:02:19;;;;;;;27.97;17.67;;;;;;;;;;5068559;28;20075;-71
2024/01/23 09:04:46;;;;;;;23.83;16.60;;;;;;;;;;5047398;28;20406;-61
2024/01/23 09:07:12;;;;;;;24.97;16.53;;;;;;;;;;5039754;28;20501;-52
2024/01/23 09:09:38;;;;;;;27.70;17.93;;;;;;;;;;5038868;28;20052;-59
2024/01/23 09:12:05;;;;;;;23.70;16.17;;;;;;;;;;5036816;28;20125;-60
2024/01/23 09:14:31;;;;;;;26.67;18.27;;;;;;;;;;5046312;28;20100;-61
2024/01/23 09:16:57;;;;;;;26.40;18.20;;;;;;;;;;5037145;28;20060;-61
2024/01/23 09:19:23;;;;;;;30.47;20.13;;;;;;;;;;5047455;28;20112;-60
2024/01/23 09:21:49;;;;;;;29.20;18.93;;;;;;;;;;5048732;28;20025;-72
2024/01/23 09:24:15;;;;;;;29.93;19.90;;;;;;;;;;5049484;28;20467;-68
2024/01/23 09:26:41;;;;;;;30.87;19.80;;;;;;;;;;5050458;28;20079;-66
2024/01/23 09:29:07;;;;;;;27.20;19.13;;;;;;;;;;5042273;28;20193;-67
2024/01/23 09:31:33;;;;;;;29.13;19.30;;;;;;;;;;5037466;28;20033;-65
2024/01/23 09:33:59;;;;;;;27.67;18.20;;;;;;;;;;5041404;28;20037;-67
2024/01/23 09:36:25;;;;;;;29.07;17.37;;;;;;;;;;5040097;28;20021;-62
2024/01/23 09:38:51;;;;;;;29.87;17.80;;;;;;;;;;5051095;28;20029;-63
2024/01/23 09:41:17;;;;;;;30.97;19.57;;;;;;;;;;5044746;28;20037;-61
2024/01/23 09:43:46;;;;;;;24.27;19.40;;;;;;;;;;5049894;28;20033;-61
2024/01/23 09:46:13;;;;;;;25.07;17.87;;;;;;;;;;5041323;28;20387;-62
2024/01/23 09:48:40;;;;;;;26.47;18.77;;;;;;;;;;5053966;28;20036;-65
2024/01/23 09:51:11;;;;;;;27.67;17.13;;;;;;;;;;5039991;28;20400;-65
2024/01/23 09:53:38;;;;;;;21.30;17.20;;;;;;;;;;5052036;28;20028;-60
2024/01/23 09:56:04;;;;;;;28.77;18.33;;;;;;;;;;5041053;28;20144;-62
2024/01/23 09:58:30;;;;;;;29.57;19.67;;;;;;;;;;5067128;28;20039;-62
2024/01/23 10:00:58;;;;;;;32.23;20.67;;;;;;;;;;5049247;28;20113;-64
2024/01/23 10:03:27;;;;;;;29.80;19.23;;;;;;;;;;5067559;28;20037;-64
2024/01/23 10:05:59;;;;;;;25.73;18.53;;;;;;;;;;5053109;28;20075;-63
2024/01/23 10:08:25;;;;;;;25.83;17.50;;;;;;;;;;5053376;28;20064;-60
2024/01/23 10:11:01;;;;;;;27.40;17.83;;;;;;;;;;5052372;28;20045;-59
2024/01/23 10:13:27;;;;;;;25.43;18.40;;;;;;;;;;5044924;28;20387;-60
2024/01/23 10:15:54;;;;;;;22.80;17.07;;;;;;;;;;5034533;28;20028;-59
2024/01/23 10:18:21;;;;;;;25.20;17.00;;;;;;;;;;5049689;28;20037;-62
2024/01/23 10:20:47;;;;;;;27.07;17.53;;;;;;;;;;5049326;28;20022;-67
2024/01/23 10:23:13;;;;;;;30.33;16.63;;;;;;;;;;5048924;28;20569;-62
2024/01/23 10:25:40;;;;;;;28.97;16.50;;;;;;;;;;5046321;28;20044;-59
2024/01/23 10:28:10;;;;;;;21.83;16.30;;;;;;;;;;5045561;28;20052;-62
2024/01/23 10:30:36;;;;;;;20.17;15.67;;;;;;;;;;5050632;28;20522;-60
2024/01/23 10:33:03;;;;;;;23.77;16.87;;;;;;;;;;5050905;28;20055;-60
2024/01/23 10:35:33;;;;;;;19.83;15.50;;;;;;;;;;5051299;28;20028;-53
2024/01/23 10:37:59;;;;;;;23.10;17.47;;;;;;;;;;5040920;28;20091;-54
2024/01/23 10:40:26;;;;;;;24.37;16.60;;;;;;;;;;5050963;28;20020;-72
2024/01/23 10:42:52;;;;;;;29.07;16.73;;;;;;;;;;5044472;28;20120;-63
2024/01/23 10:45:18;;;;;;;26.37;18.13;;;;;;;;;;5042186;28;20029;-62
2024/01/23 10:47:46;;;;;;;21.33;15.73;;;;;;;;;;5042984;28;20040;-60
2024/01/23 10:50:12;;;;;;;22.60;16.13;;;;;;;;;;5043299;28;20040;-60
2024/01/23 10:52:43;;;;;;;18.70;14.77;;;;;;;;;;5045997;28;20060;-60
2024/01/23 10:55:10;;;;;;;19.37;16.00;;;;;;;;;;5044979;28;20029;-60
2024/01/23 10:57:37;;;;;;;23.73;15.17;;;;;;;;;;5042398;28;20486;-55
2024/01/23 11:03:07;;;;;;;23.67;15.33;;;;;;;;;;5041099;28;21814;-61
2024/01/23 11:05:39;;;;;;;19.63;15.70;;;;;;;;;;5042948;28;20458;-61
2024/01/23 11:08:09;;;;;;;19.83;16.03;;;;;;;;;;5042958;28;20079;-58
2024/01/23 11:10:50;;;;;;;22.60;15.60;;;;;;;;;;5044053;28;20023;-58
2024/01/23 11:13:31;;;;;;;22.80;16.47;;;;;;;;;;5034991;28;20034;-59
2024/01/23 11:15:58;;;;;;;21.50;16.40;;;;;;;;;;5049919;28;20095;-60
2024/01/23 11:18:28;;;;;;;18.40;15.27;;;;;;;;;;5052629;28;20498;-59
2024/01/23 11:21:08;;;;;;;23.63;16.10;;;;;;;;;;5039272;28;20028;-59
2024/01/23 11:23:35;;;;;;;23.60;16.47;;;;;;;;;;5051664;28;20544;-57
2024/01/23 11:26:02;;;;;;;25.50;18.27;;;;;;;;;;5040679;28;20029;-59
2024/01/23 11:28:28;;;;;;;23.43;17.37;;;;;;;;;;5049855;28;20080;-59
2024/01/23 11:31:09;;;;;;;23.67;17.10;;;;;;;;;;5038688;28;20091;-55
2024/01/23 11:33:35;;;;;;;22.33;18.13;;;;;;;;;;5040784;28;20063;-60
2024/01/23 11:36:08;;;;;;;24.70;18.10;;;;;;;;;;5052687;28;20029;-61
2024/01/23 11:38:44;;;;;;;27.03;18.30;;;;;;;;;;5038166;28;20053;-60
2024/01/23 11:41:13;;;;;;;22.67;17.97;;;;;;;;;;5052596;28;20112;-60
2024/01/23 11:43:40;;;;;;;22.33;18.30;;;;;;;;;;5052586;28;20052;-61
2024/01/23 11:46:12;;;;;;;25.90;18.73;;;;;;;;;;5039506;28;20463;-66
2024/01/23 11:48:38;;;;;;;26.10;19.17;;;;;;;;;;5066747;28;20509;-59
2024/01/23 11:51:05;;;;;;;31.33;20.33;;;;;;;;;;5050919;28;20057;-59
2024/01/23 11:53:35;;;;;;;25.10;19.50;;;;;;;;;;5048862;28;20132;-57
2024/01/23 11:56:02;;;;;;;26.43;20.13;;;21.60;99.90;;;;;;5042853;28;20108;-58
2024/01/23 11:58:27;;;;;;;30.17;22.37;;;22.90;99.90;;;;;;5052246;28;20025;-58
2024/01/23 12:00:54;;;;;;;26.33;19.87;;;22.90;99.90;;;;;;5052409;28;20482;-57
2024/01/23 12:03:20;;;;;;;23.77;18.80;;;22.80;99.90;;;;;;5049186;28;20021;-57
2024/01/23 12:05:47;;;;;;;25.17;19.80;;;22.90;99.90;;;;;;5036868;28;20029;-58
2024/01/23 12:08:13;;;;;;;25.87;19.27;;;22.90;99.90;;;;;;5052321;28;20028;-59
2024/01/23 12:10:39;;;;;;;25.83;17.93;;;22.90;99.90;;;;;;5051975;28;20025;-57
2024/01/23 12:13:06;;;;;;;25.40;18.10;;;23.00;99.90;;;;;;5052406;28;20082;-58
2024/01/23 12:15:32;;;;;;;20.77;18.57;;;23.00;99.90;;;;;;5051978;28;20083;-60
2024/01/23 12:17:58;;;;;;;25.83;17.73;;;23.00;99.90;;;;;;5052549;28;20442;-59
2024/01/23 12:20:23;;;;;;;25.13;17.07;;;23.00;99.90;;;;;;5040807;28;20386;-59
2024/01/23 12:22:49;;;;;;;24.77;18.43;;;22.90;99.90;;;;;;5037922;28;20478;-58
2024/01/23 12:25:16;;;;;;;27.47;19.00;;;23.00;99.90;;;;;;5033394;28;20029;-58
2024/01/23 12:27:44;;;;;;;21.13;15.90;;;23.00;99.90;;;;;;5037986;28;20078;-58
2024/01/23 12:30:14;;;;;;;19.83;15.60;;;23.00;99.90;;;;;;5052190;28;20432;-58
2024/01/23 12:32:40;;;;;;;19.17;15.53;;;23.00;99.90;;;;;;5051803;28;20354;-58
2024/01/23 12:35:12;;;;;;;24.80;17.63;;;23.10;99.90;;;;;;5051908;28;20027;-59
2024/01/23 12:37:39;;;;;;;18.47;15.77;;;23.10;99.90;;;;;;5050616;28;20044;-58
2024/01/23 12:40:09;;;;;;;21.30;16.17;;;23.20;99.90;;;;;;5050719;28;20033;-58
2024/01/23 12:42:40;;;;;;;20.90;16.53;;;23.00;99.90;;;;;;5051944;28;20163;-59
2024/01/23 12:45:16;;;;;;;22.03;16.47;;;23.10;99.90;;;;;;5051929;28;20531;-59
2024/01/23 12:47:44;;;;;;;20.47;15.67;;;23.20;99.90;;;;;;5052133;28;20360;-59
2024/01/23 12:50:20;;;;;;;18.27;14.47;;;;;;;;;;5051488;28;20073;-59
2024/01/23 12:52:53;;;;;;;22.47;16.97;;;;;;;;;;5051848;28;20037;-59
2024/01/23 12:55:20;;;;;;;19.63;15.33;;;;;;;;;;5050397;28;20029;-59
2024/01/23 12:57:46;;;;;;;24.50;16.70;;;;;;;;;;5052102;28;20364;-58
2024/01/23 13:00:16;;;;;;;17.47;14.97;;;;;;;;;;5051437;28;20033;-59
2024/01/23 13:02:42;;;;;;;17.17;14.13;;;;;;;;;;5051786;28;20025;-59
2024/01/23 13:05:09;;;;;;;19.23;15.03;;;;;;;;;;5051634;28;20060;-57
2024/01/23 13:07:35;;;;;;;20.77;15.17;;;;;;;;;;5051348;28;20053;-59
2024/01/23 13:10:04;;;;;;;22.20;15.40;;;;;;;;;;5050258;28;20098;-60
2024/01/23 13:12:30;;;;;;;19.77;15.30;;;;;;;;;;5050142;28;20033;-59
2024/01/23 13:14:56;;;;;;;21.93;15.77;;;;;;;;;;5053928;28;20091;-59
2024/01/23 13:17:22;;;;;;;22.77;15.60;;;;;;;;;;5054077;28;20040;-58
2024/01/23 13:19:48;;;;;;;20.73;15.93;;;;;;;;;;5049254;28;20021;-59
2024/01/23 13:22:14;;;;;;;23.33;16.67;;;;;;;;;;5050448;28;20052;-56
2024/01/23 13:24:52;;;;;;;18.50;15.20;;;;;;;;;;5055431;28;20017;-56
2024/01/23 13:27:18;;;;;;;20.73;14.80;;;;;;;;;;5039754;28;20132;-57
2024/01/23 13:29:44;;;;;;;19.30;14.80;;;;;;;;;;5048282;28;20061;-59
2024/01/23 13:32:11;;;;;;;22.83;16.13;;;;;;;;;;5048626;28;20422;-59
2024/01/23 13:34:37;;;;;;;22.60;16.60;;;;;;;;;;5053926;28;20029;-59
2024/01/23 13:37:04;;;;;;;19.03;15.73;;;;;;;;;;5051900;28;20049;-59
2024/01/23 13:39:30;;;;;;;20.00;15.43;;;;;;;;;;5054814;28;20494;-62
2024/01/23 13:41:57;;;;;;;22.03;15.37;;;;;;;;;;5050815;28;20108;-62
2024/01/23 13:44:23;;;;;;;20.40;15.47;;;;;;;;;;5043409;28;20429;-62
2024/01/23 13:46:49;;;;;;;22.17;15.90;;;;;;;;;;5040901;28;20021;-62
2024/01/23 13:49:15;;;;;;;20.57;15.37;;;;;;;;;;5054414;28;20494;-62
2024/01/23 13:51:42;;;;;;;21.48;15.25;;;;;;;;;;5054067;28;20494;-62
2024/01/23 13:54:08;;;;;;;21.30;15.52;;;;;;;;;;5054284;28;20540;-64
2024/01/23 13:56:37;;;;;;;22.50;17.13;;;;;;;;;;5054693;28;20049;-63
2024/01/23 13:59:04;;;;;;;25.02;16.55;;;;;;;;;;5054254;28;20106;-63
2024/01/23 14:01:31;;;;;;;27.70;17.05;;;;;;;;;;5054480;28;20025;-63
2024/01/23 14:03:57;;;;;;;24.60;16.35;;;;;;;;;;5053464;28;20067;-60
2024/01/23 14:09:30;;;;;;;21.58;16.60;;;;;;;;;;5046119;28;20385;-59
2024/01/23 14:11:56;;;;;;;21.98;18.50;;;;;;;;;;5050202;28;20122;-59
2024/01/23 14:14:22;;;;;;;22.00;16.73;;;;;;;;;;5038830;28;20098;-59
2024/01/23 14:22:57;;;;;;;23.17;16.90;;;;;;;;;;5040109;28;20060;-59
2024/01/23 14:25:24;;;;;;;19.58;17.40;;;;;;;;;;5051152;28;20418;-58